Tyndall Air Force Base Panama City US
ICAO: KPAM
IATA: PAM
Category: Large
Scheduled Services: No

Elevation: 17 ft
TransAlt. 18000 ft.

Airport Communications:
APP/DEP:119.1
ATIS:25.44
CLNC DEL:118.05
GND:121.9
PMSV METRO:29.062
COMD POST:38.13
PTD:139.9
TWR:133.95

KPAM Zoom In..

Runways:

(A) RW 13L length 10004 ft width 200 ft
ILS 111.50 / hdg 135

(B) RW 13R length 9135 ft width 150 ft
---- / hdg 135

(C) RW 31L length 9135 ft width 150 ft
---- / hdg 315

(D) RW 31R length 10004 ft width 200 ft
ILS 110.10 / hdg 315

Location; KPAM
Day. 05 / Time. 14.56 Zulu
* Altimeter: 30.03
* Temperature: 27° c. 80.6°f.
* Wind from: 190° Speed 04 kn.
Dewpoint: 23° c.
Visibility: 10 Statute Miles.
Clouds: Broken 1700 ft.

KPAM 051456Z 19004KT 10SM BKN017 27/23 A3003 RMK AO2A CIG 016 RWY32 SLP172 T02710233 50011 $


Wind From 190°
Speed 04 kn.

 
 
jpsmedia worldairports.se 2020   terms of use